Terminal Aerodrome Forecast
Issued by NWS Indianapolis, IN

Home | Current Version | Previous Version | Text Only | Print | Product List | Glossary On
Versions: 1 2 3 4 5 6 7 8 9 10 11 12 13 14 15 16 17 18 19 20 21 22 23 24 25 26 27
000
FTUS43 KIND 061100
TAFIND
TAF
KIND 061120Z 0612/0718 VRB02KT P6SM SCT090 BKN250
     FM061600 20007KT P6SM SCT060
     FM070000 18005KT P6SM SCT250
     FM071600 18007KT P6SM SCT060=

USA.gov is the U.S. government's official web portal to all federal, state and local government web resources and services.